Terminal Aerodrome Forecast
Issued by NWS

Home | Current Version | Previous Version | Graphics & Text | Print | Product List | Glossary On
Versions: 1 2 3 4 5 6 7 8 9 10 11 12 13 14 15 16
049
FTUS43 KICT 141140
TAFHUT
TAF
KHUT 141140Z 1412/1512 17010KT P6SM VCSH SCT070 OVC150
     FM141600 19015G25KT P6SM -SHRA VCTS SCT050CB BKN080
     FM142200 33020G30KT P6SM BKN090
     FM150200 34028G38KT P6SM BKN120
     FM150600 34020G28KT P6SM SCT250=

USA.gov is the U.S. government's official web portal to all federal, state and local government web resources and services.